Wetterdaten: Woche 08.12.14 - 14.12.14 (KW50)
Datum Zeit Temp. A. Feuchte A. Luftdruck Regen Wind Richtung Taupunkt Windchill Windben
08.12.2014 00:00 4,4 C 86 % 1018,5 hPa 0,0 l/m 2,5 km/h N 2,3 C 4,4 C 11,3 km/h
08.12.2014 01:00 4,5 C 86 % 1018,2 hPa 0,0 l/m 4,1 km/h N 2,4 C 4,5 C 14,5 km/h
08.12.2014 02:00 4,8 C 86 % 1018,0 hPa 0,0 l/m 6,2 km/h N 2,7 C 4,4 C 19,7 km/h
08.12.2014 03:00 5,2 C 84 % 1017,5 hPa 0,0 l/m 7,6 km/h N 2,7 C 4,1 C 22,9 km/h
08.12.2014 04:00 5,3 C 83 % 1017,1 hPa 0,0 l/m 12,5 km/h N 2,6 C 0,8 C 32,2 km/h
08.12.2014 05:00 5,5 C 81 % 1017,2 hPa 0,0 l/m 15,3 km/h N 2,4 C -0,4 C 40,2 km/h
08.12.2014 06:00 5,4 C 79 % 1017,3 hPa 0,0 l/m 11,8 km/h N 2,0 C 1,5 C 33,4 km/h
08.12.2014 07:00 5,3 C 75 % 1017,5 hPa 0,0 l/m 11,9 km/h N 1,3 C 1,2 C 30,2 km/h
08.12.2014 08:00 5,6 C 75 % 1017,8 hPa 0,0 l/m 14,1 km/h N 1,5 C 0,2 C 32,6 km/h
08.12.2014 09:00 5,7 C 75 % 1018,2 hPa 0,0 l/m 12,7 km/h N 1,7 C 1,2 C 31,8 km/h
08.12.2014 10:00 6,0 C 76 % 1018,3 hPa 0,0 l/m 10,8 km/h N 2,1 C 2,7 C 28,2 km/h
08.12.2014 11:00 5,9 C 77 % 1018,5 hPa 0,0 l/m 10,8 km/h N 2,1 C 2,6 C 28,2 km/h
08.12.2014 12:00 5,7 C 78 % 1018,5 hPa 0,0 l/m 10,3 km/h N 2,2 C 2,7 C 26,5 km/h
08.12.2014 13:00 5,4 C 80 % 1018,5 hPa 0,0 l/m 7,8 km/h N 2,2 C 4,2 C 21,3 km/h
08.12.2014 14:00 5,3 C 80 % 1018,6 hPa 0,0 l/m 7,7 km/h N 2,1 C 4,0 C 20,9 km/h
08.12.2014 15:00 5,1 C 81 % 1018,7 hPa 0,0 l/m 4,1 km/h N 2,1 C 5,1 C 14,5 km/h
08.12.2014 16:00 5,1 C 80 % 1019,0 hPa 0,0 l/m 3,4 km/h N 2,0 C 5,1 C 14,1 km/h
08.12.2014 17:00 4,9 C 80 % 1019,1 hPa 0,0 l/m 3,9 km/h N 1,6 C 4,9 C 12,5 km/h
08.12.2014 18:00 4,2 C 82 % 1019,3 hPa 0,0 l/m 1,6 km/h N 1,3 C 4,2 C 6,0 km/h
08.12.2014 19:00 3,5 C 84 % 1019,5 hPa 0,0 l/m 2,3 km/h N 1,0 C 3,5 C 9,7 km/h
08.12.2014 20:00 2,7 C 84 % 1019,7 hPa 0,0 l/m 0,3 km/h N 0,3 C 2,7 C 2,0 km/h
08.12.2014 21:00 2,3 C 86 % 1019,8 hPa 0,0 l/m 1,0 km/h N 0,2 C 2,3 C 5,6 km/h
08.12.2014 22:00 2,0 C 86 % 1019,9 hPa 0,0 l/m 0,4 km/h N -0,1 C 2,0 C 4,0 km/h
08.12.2014 23:00 2,4 C 86 % 1020,0 hPa 0,0 l/m 1,5 km/h N 0,2 C 2,4 C 7,6 km/h
09.12.2014 00:00 2,2 C 85 % 1020,0 hPa 0,0 l/m 1,2 km/h N -0,0 C 2,2 C 6,0 km/h
09.12.2014 01:00 2,0 C 85 % 1020,3 hPa 0,0 l/m 1,3 km/h N -0,3 C 2,0 C 8,4 km/h
09.12.2014 02:00 1,7 C 85 % 1020,5 hPa 0,0 l/m 2,0 km/h N -0,5 C 1,7 C 8,4 km/h
09.12.2014 03:00 1,8 C 84 % 1020,6 hPa 0,0 l/m 1,7 km/h N -0,6 C 1,8 C 10,1 km/h
09.12.2014 04:00 1,0 C 85 % 1020,9 hPa 0,0 l/m 1,4 km/h N -1,4 C 1,0 C 6,8 km/h
09.12.2014 05:00 1,3 C 85 % 1021,4 hPa 0,0 l/m 2,3 km/h N -1,0 C 1,3 C 10,9 km/h
09.12.2014 06:00 1,4 C 84 % 1021,9 hPa 0,0 l/m 3,5 km/h N -1,0 C 1,4 C 11,7 km/h
09.12.2014 07:00 1,3 C 84 % 1022,7 hPa 0,0 l/m 3,6 km/h N -1,1 C 1,3 C 14,5 km/h
09.12.2014 08:00 1,6 C 84 % 1023,7 hPa 0,0 l/m 5,6 km/h N -0,8 C 1,4 C 16,1 km/h
09.12.2014 09:00 2,0 C 83 % 1024,5 hPa 0,0 l/m 6,4 km/h N -0,6 C 1,6 C 17,7 km/h
09.12.2014 10:00 2,7 C 82 % 1024,9 hPa 0,0 l/m 7,8 km/h N -0,2 C 1,3 C 19,7 km/h
09.12.2014 11:00 3,3 C 79 % 1025,1 hPa 0,0 l/m 7,5 km/h N -0,0 C 2,3 C 19,7 km/h
09.12.2014 12:00 4,0 C 73 % 1025,1 hPa 0,0 l/m 8,9 km/h N -0,3 C 1,8 C 25,0 km/h
09.12.2014 13:00 4,5 C 70 % 1025,3 hPa 0,0 l/m 9,3 km/h N -0,6 C 2,0 C 24,9 km/h
09.12.2014 14:00 4,4 C 68 % 1025,5 hPa 0,0 l/m 8,3 km/h N -1,0 C 2,8 C 23,3 km/h
09.12.2014 15:00 4,0 C 71 % 1026,2 hPa 0,0 l/m 7,5 km/h N -0,9 C 3,0 C 21,7 km/h
09.12.2014 16:00 3,3 C 73 % 1026,7 hPa 0,0 l/m 7,6 km/h N -1,0 C 2,2 C 24,1 km/h
09.12.2014 17:00 2,8 C 74 % 1027,6 hPa 0,0 l/m 6,9 km/h N -1,3 C 2,3 C 22,1 km/h
09.12.2014 18:00 2,3 C 75 % 1028,2 hPa 0,0 l/m 6,3 km/h N -1,7 C 2,2 C 21,3 km/h
09.12.2014 19:00 1,7 C 76 % 1028,5 hPa 0,0 l/m 5,3 km/h N -2,0 C 1,7 C 20,1 km/h
09.12.2014 20:00 1,3 C 78 % 1028,7 hPa 0,0 l/m 6,2 km/h N -2,2 C 1,0 C 21,7 km/h
09.12.2014 21:00 1,0 C 78 % 1028,9 hPa 0,0 l/m 7,6 km/h N -2,4 C -0,2 C 23,3 km/h
09.12.2014 22:00 0,8 C 78 % 1029,0 hPa 0,0 l/m 8,5 km/h N -2,5 C -1,2 C 23,7 km/h
09.12.2014 23:00 0,6 C 78 % 1028,9 hPa 0,0 l/m 7,4 km/h N -2,8 C -0,3 C 22,9 km/h
10.12.2014 00:00 0,4 C 79 % 1028,8 hPa 0,0 l/m 5,1 km/h N -2,9 C 0,4 C 18,1 km/h
10.12.2014 01:00 0,2 C 79 % 1028,6 hPa 0,0 l/m 5,8 km/h N -3,1 C 0,1 C 20,5 km/h
10.12.2014 02:00 -0,0 C 79 % 1028,3 hPa 0,0 l/m 5,3 km/h N -3,2 C -0,4 C 18,5 km/h
10.12.2014 03:00 -0,2 C 82 % 1028,1 hPa 0,0 l/m 4,3 km/h N -2,9 C -0,2 C 17,7 km/h
10.12.2014 04:00 -0,2 C 83 % 1027,7 hPa 0,0 l/m 7,1 km/h N -2,7 C -1,0 C 23,7 km/h
10.12.2014 05:00 -0,6 C 83 % 1027,4 hPa 0,0 l/m 2,4 km/h N -3,1 C -0,6 C 11,3 km/h
10.12.2014 06:00 -1,3 C 84 % 1027,4 hPa 0,0 l/m 0,8 km/h N -3,6 C -1,3 C 7,2 km/h
10.12.2014 07:00 -1,0 C 85 % 1026,8 hPa 0,0 l/m 3,0 km/h N -3,2 C -1,0 C 9,6 km/h
10.12.2014 08:00 -0,4 C 83 % 1026,3 hPa 0,0 l/m 4,0 km/h N -3,0 C -0,4 C 13,7 km/h
10.12.2014 09:00 0,8 C 78 % 1025,7 hPa 0,0 l/m 5,1 km/h N -2,6 C 0,5 C 16,1 km/h
10.12.2014 10:00 2,1 C 72 % 1025,4 hPa 0,0 l/m 6,9 km/h N -2,5 C 1,4 C 20,1 km/h
10.12.2014 11:00 3,0 C 69 % 1024,5 hPa 0,0 l/m 5,7 km/h N -2,2 C 2,7 C 16,9 km/h
10.12.2014 12:00 3,9 C 63 % 1023,3 hPa 0,0 l/m 4,9 km/h N -2,5 C 3,8 C 17,7 km/h
10.12.2014 13:00 4,9 C 59 % 1022,4 hPa 0,0 l/m 2,8 km/h N -2,4 C 4,9 C 10,9 km/h
10.12.2014 14:00 5,0 C 57 % 1022,4 hPa 0,0 l/m 5,8 km/h N -2,8 C 5,0 C 17,7 km/h
10.12.2014 15:00 4,3 C 58 % 1022,1 hPa 0,0 l/m 2,4 km/h N -3,2 C 4,3 C 15,7 km/h
10.12.2014 16:00 3,9 C 56 % 1021,7 hPa 0,0 l/m 3,8 km/h N -4,0 C 3,9 C 13,3 km/h
10.12.2014 17:00 3,6 C 54 % 1021,3 hPa 0,0 l/m 0,8 km/h N -4,9 C 3,6 C 4,8 km/h
10.12.2014 18:00 2,1 C 62 % 1021,3 hPa 0,0 l/m 0,0 km/h N -4,5 C 2,1 C 0,0 km/h
10.12.2014 19:00 1,7 C 68 % 1021,2 hPa 0,0 l/m 0,4 km/h N -3,5 C 1,7 C 4,8 km/h
10.12.2014 20:00 2,1 C 71 % 1020,8 hPa 0,0 l/m 0,1 km/h N -2,7 C 2,1 C 1,6 km/h
10.12.2014 21:00 1,5 C 75 % 1020,8 hPa 0,0 l/m 0,0 km/h N -2,5 C 1,5 C 0,0 km/h
10.12.2014 22:00 1,3 C 77 % 1020,6 hPa 0,0 l/m 0,2 km/h N -2,4 C 1,3 C 2,8 km/h
10.12.2014 23:00 2,2 C 75 % 1019,9 hPa 0,0 l/m 0,9 km/h N -1,7 C 2,2 C 6,8 km/h
11.12.2014 00:00 4,0 C 72 % 1019,9 hPa 0,0 l/m 3,9 km/h N -0,7 C 3,8 C 16,9 km/h
11.12.2014 01:00 4,7 C 72 % 1019,7 hPa 0,0 l/m 3,9 km/h N 0,0 C 4,7 C 19,7 km/h
11.12.2014 02:00 4,4 C 74 % 1019,6 hPa 0,0 l/m 1,4 km/h N 0,1 C 4,4 C 7,6 km/h
11.12.2014 03:00 3,2 C 77 % 1019,5 hPa 0,0 l/m 0,3 km/h N -0,6 C 3,2 C 3,6 km/h
11.12.2014 04:00 2,3 C 78 % 1019,3 hPa 0,0 l/m 0,1 km/h N -1,1 C 2,3 C 1,2 km/h
11.12.2014 05:00 2,0 C 80 % 1019,1 hPa 0,0 l/m 0,1 km/h N -1,1 C 2,0 C 1,6 km/h
11.12.2014 06:00 1,9 C 82 % 1018,8 hPa 0,0 l/m 0,1 km/h N -0,9 C 1,9 C 0,8 km/h
11.12.2014 07:00 2,2 C 82 % 1018,3 hPa 0,0 l/m 0,2 km/h N -0,5 C 2,2 C 2,0 km/h
11.12.2014 08:00 2,7 C 77 % 1017,9 hPa 0,0 l/m 0,3 km/h N -0,9 C 2,7 C 3,2 km/h
11.12.2014 09:00 4,6 C 68 % 1018,0 hPa 0,0 l/m 0,5 km/h N -0,8 C 4,6 C 3,2 km/h
11.12.2014 10:00 5,6 C 66 % 1018,0 hPa 0,0 l/m 0,2 km/h N -0,4 C 5,6 C 2,4 km/h
11.12.2014 11:00 6,8 C 68 % 1017,2 hPa 0,0 l/m 1,2 km/h N 1,2 C 6,8 C 5,6 km/h
11.12.2014 12:00 7,7 C 69 % 1016,7 hPa 0,0 l/m 5,3 km/h N 2,4 C 6,9 C 19,3 km/h
11.12.2014 13:00 8,0 C 72 % 1016,5 hPa 0,0 l/m 5,3 km/h N 3,3 C 8,0 C 20,1 km/h
11.12.2014 14:00 7,9 C 71 % 1016,2 hPa 0,0 l/m 1,9 km/h N 2,9 C 7,9 C 8,8 km/h
11.12.2014 15:00 7,8 C 70 % 1015,6 hPa 0,0 l/m 1,1 km/h N 2,6 C 7,8 C 8,4 km/h
11.12.2014 16:00 6,6 C 72 % 1015,9 hPa 0,0 l/m 0,5 km/h N 1,8 C 6,6 C 2,8 km/h
11.12.2014 17:00 5,8 C 76 % 1016,3 hPa 0,0 l/m 0,2 km/h N 1,9 C 5,8 C 2,4 km/h
11.12.2014 18:00 4,7 C 79 % 1016,3 hPa 0,0 l/m 0,4 km/h N 1,3 C 4,7 C 4,8 km/h
11.12.2014 19:00 6,7 C 66 % 1016,1 hPa 0,0 l/m 1,9 km/h N 0,7 C 6,7 C 10,5 km/h
11.12.2014 20:00 7,1 C 61 % 1016,1 hPa 0,0 l/m 0,8 km/h N -0,0 C 7,1 C 8,0 km/h
11.12.2014 21:00 5,0 C 66 % 1016,1 hPa 0,0 l/m 0,5 km/h N -0,9 C 5,0 C 3,6 km/h
11.12.2014 22:00 5,4 C 68 % 1016,4 hPa 0,0 l/m 2,9 km/h N -0,0 C 5,4 C 13,7 km/h
11.12.2014 23:00 7,1 C 67 % 1016,2 hPa 0,0 l/m 2,4 km/h N 1,3 C 7,1 C 12,5 km/h
12.12.2014 00:00 5,3 C 69 % 1016,1 hPa 0,0 l/m 0,5 km/h N 0,0 C 5,3 C 6,8 km/h
12.12.2014 01:00 6,9 C 67 % 1015,9 hPa 0,0 l/m 3,3 km/h N 1,2 C 6,9 C 14,1 km/h
12.12.2014 02:00 8,1 C 61 % 1016,3 hPa 0,0 l/m 4,6 km/h N 0,9 C 8,1 C 19,7 km/h
12.12.2014 03:00 8,7 C 59 % 1016,3 hPa 0,0 l/m 9,8 km/h N 1,1 C 6,3 C 29,4 km/h
12.12.2014 04:00 8,7 C 60 % 1016,2 hPa 0,0 l/m 10,7 km/h N 1,3 C 5,8 C 28,6 km/h
12.12.2014 05:00 8,4 C 61 % 1016,7 hPa 0,0 l/m 5,2 km/h N 1,3 C 8,0 C 19,7 km/h
12.12.2014 06:00 7,6 C 63 % 1017,3 hPa 0,0 l/m 1,1 km/h N 1,0 C 7,6 C 10,9 km/h
12.12.2014 07:00 5,5 C 67 % 1017,4 hPa 0,0 l/m 0,1 km/h N -0,2 C 5,5 C 2,0 km/h
12.12.2014 08:00 3,0 C 75 % 1017,3 hPa 0,0 l/m 0,0 km/h N -1,1 C 3,0 C 0,4 km/h
12.12.2014 09:00 4,2 C 79 % 1016,8 hPa 0,0 l/m 0,6 km/h N 0,9 C 4,2 C 3,6 km/h
12.12.2014 10:00 7,9 C 63 % 1015,8 hPa 0,0 l/m 2,2 km/h N 1,2 C 7,9 C 9,7 km/h
12.12.2014 11:00 9,5 C 59 % 1014,8 hPa 0,0 l/m 1,5 km/h N 1,8 C 9,5 C 8,4 km/h
12.12.2014 12:00 8,3 C 63 % 1013,6 hPa 0,0 l/m 1,8 km/h N 1,7 C 8,3 C 9,6 km/h
12.12.2014 13:00 8,3 C 63 % 1012,4 hPa 0,0 l/m 1,4 km/h N 1,8 C 8,3 C 7,2 km/h
12.12.2014 14:00 8,2 C 62 % 1011,4 hPa 0,0 l/m 1,1 km/h N 1,4 C 8,2 C 6,4 km/h
12.12.2014 15:00 7,9 C 62 % 1011,2 hPa 0,0 l/m 0,1 km/h N 1,1 C 7,9 C 1,6 km/h
12.12.2014 16:00 6,5 C 68 % 1010,8 hPa 0,0 l/m 0,0 km/h N 1,1 C 6,5 C 1,6 km/h
12.12.2014 17:00 4,4 C 74 % 1010,7 hPa 0,0 l/m 0,2 km/h N 0,1 C 4,4 C 2,0 km/h
12.12.2014 18:00 2,8 C 79 % 1010,4 hPa 0,0 l/m 0,2 km/h N -0,5 C 2,8 C 2,8 km/h
12.12.2014 19:00 2,1 C 82 % 1010,4 hPa 0,0 l/m 0,6 km/h N -0,7 C 2,1 C 3,6 km/h
12.12.2014 20:00 2,5 C 82 % 1011,3 hPa 0,0 l/m 0,8 km/h N -0,2 C 2,5 C 4,4 km/h
12.12.2014 21:00 4,0 C 79 % 1011,6 hPa 0,0 l/m 0,6 km/h N 0,7 C 4,0 C 4,4 km/h
12.12.2014 22:00 3,4 C 79 % 1011,6 hPa 0,0 l/m 0,1 km/h N 0,1 C 3,4 C 1,2 km/h
12.12.2014 23:00 2,2 C 81 % 1012,3 hPa 0,0 l/m 0,1 km/h N -0,7 C 2,2 C 0,8 km/h
13.12.2014 00:00 1,6 C 83 % 1012,5 hPa 0,0 l/m 0,0 km/h N -0,9 C 1,6 C 0,0 km/h
13.12.2014 01:00 1,7 C 84 % 1012,8 hPa 0,0 l/m 0,0 km/h N -0,7 C 1,7 C 0,4 km/h
13.12.2014 02:00 1,7 C 85 % 1013,2 hPa 0,0 l/m 0,1 km/h N -0,5 C 1,7 C 0,8 km/h
13.12.2014 03:00 1,8 C 86 % 1013,0 hPa 0,0 l/m 0,4 km/h N -0,3 C 1,8 C 2,8 km/h
13.12.2014 04:00 2,2 C 85 % 1013,2 hPa 0,0 l/m 0,7 km/h N -0,2 C 2,2 C 5,6 km/h
13.12.2014 05:00 2,0 C 85 % 1014,0 hPa 0,0 l/m 0,1 km/h N -0,3 C 2,0 C 2,4 km/h
13.12.2014 06:00 1,8 C 85 % 1014,8 hPa 0,0 l/m 0,8 km/h N -0,4 C 1,8 C 3,2 km/h
13.12.2014 07:00 1,4 C 85 % 1015,3 hPa 0,0 l/m 0,0 km/h N -0,9 C 1,4 C 0,0 km/h
13.12.2014 08:00 1,4 C 86 % 1016,0 hPa 0,0 l/m 0,2 km/h N -0,8 C 1,4 C 2,0 km/h
13.12.2014 09:00 2,1 C 86 % 1016,5 hPa 0,0 l/m 0,1 km/h N -0,0 C 2,1 C 2,0 km/h
13.12.2014 10:00 3,4 C 85 % 1016,4 hPa 0,0 l/m 0,6 km/h N 1,1 C 3,4 C 4,4 km/h
13.12.2014 11:00 5,1 C 78 % 1015,9 hPa 0,0 l/m 2,5 km/h N 1,6 C 5,1 C 9,7 km/h
13.12.2014 12:00 5,8 C 76 % 1015,5 hPa 0,0 l/m 2,0 km/h N 1,8 C 5,8 C 8,0 km/h
13.12.2014 13:00 6,0 C 75 % 1015,5 hPa 0,0 l/m 2,1 km/h N 1,9 C 6,0 C 8,0 km/h
13.12.2014 14:00 5,9 C 77 % 1015,7 hPa 0,0 l/m 0,6 km/h N 2,1 C 5,9 C 4,4 km/h
13.12.2014 15:00 5,2 C 80 % 1016,4 hPa 0,0 l/m 0,1 km/h N 1,9 C 5,2 C 2,8 km/h
13.12.2014 16:00 4,0 C 82 % 1016,8 hPa 0,0 l/m 0,2 km/h N 1,3 C 4,0 C 2,8 km/h
13.12.2014 17:00 3,6 C 84 % 1017,2 hPa 0,0 l/m 0,7 km/h N 1,2 C 3,6 C 4,8 km/h
13.12.2014 18:00 3,3 C 84 % 1017,6 hPa 0,0 l/m 1,1 km/h N 0,8 C 3,3 C 6,8 km/h
13.12.2014 19:00 3,3 C 85 % 1018,0 hPa 0,0 l/m 0,5 km/h N 1,0 C 3,3 C 5,2 km/h
13.12.2014 20:00 2,8 C 85 % 1018,0 hPa 0,0 l/m 0,0 km/h N 0,5 C 2,8 C 2,4 km/h
13.12.2014 21:00 1,8 C 85 % 1018,2 hPa 0,0 l/m 0,1 km/h N -0,5 C 1,8 C 2,0 km/h
13.12.2014 22:00 1,0 C 86 % 1018,5 hPa 0,0 l/m 0,4 km/h N -1,1 C 1,0 C 4,0 km/h
13.12.2014 23:00 1,6 C 85 % 1018,4 hPa 0,0 l/m 1,1 km/h N -0,6 C 1,6 C 6,8 km/h
14.12.2014 00:00 1,7 C 85 % 1018,3 hPa 0,0 l/m 1,4 km/h N -0,6 C 1,7 C 8,0 km/h
14.12.2014 01:00 1,5 C 84 % 1018,2 hPa 0,0 l/m 0,7 km/h N -0,9 C 1,5 C 5,6 km/h
14.12.2014 02:00 1,3 C 84 % 1018,7 hPa 0,0 l/m 0,4 km/h N -1,1 C 1,3 C 4,0 km/h
14.12.2014 03:00 1,2 C 84 % 1018,7 hPa 0,0 l/m 0,6 km/h N -1,3 C 1,2 C 5,6 km/h
14.12.2014 04:00 1,0 C 83 % 1018,8 hPa 0,0 l/m 0,3 km/h N -1,5 C 1,0 C 4,4 km/h
14.12.2014 05:00 1,0 C 83 % 1018,8 hPa 0,0 l/m 0,2 km/h N -1,6 C 1,0 C 2,8 km/h
14.12.2014 06:00 0,9 C 85 % 1019,0 hPa 0,0 l/m 0,5 km/h N -1,4 C 0,9 C 5,2 km/h
14.12.2014 07:00 0,8 C 83 % 1019,5 hPa 0,0 l/m 0,2 km/h N -1,8 C 0,8 C 3,6 km/h
14.12.2014 08:00 1,0 C 83 % 1020,3 hPa 0,0 l/m 0,6 km/h N -1,6 C 1,0 C 4,4 km/h
14.12.2014 09:00 1,3 C 82 % 1020,6 hPa 0,0 l/m 0,4 km/h N -1,5 C 1,3 C 4,4 km/h
14.12.2014 10:00 1,7 C 82 % 1020,7 hPa 0,0 l/m 0,0 km/h N -1,1 C 1,7 C 1,2 km/h
14.12.2014 11:00 1,8 C 82 % 1020,3 hPa 0,0 l/m 0,6 km/h N -0,9 C 1,8 C 4,0 km/h
14.12.2014 12:00 2,3 C 82 % 1020,4 hPa 0,0 l/m 0,2 km/h N -0,5 C 2,3 C 2,8 km/h
14.12.2014 13:00 2,6 C 82 % 1020,3 hPa 0,0 l/m 0,1 km/h N -0,1 C 2,6 C 2,8 km/h
14.12.2014 14:00 2,6 C 83 % 1020,3 hPa 0,0 l/m 0,2 km/h N -0,0 C 2,6 C 2,0 km/h
14.12.2014 15:00 2,5 C 83 % 1020,7 hPa 0,0 l/m 0,4 km/h N -0,1 C 2,5 C 4,0 km/h
14.12.2014 16:00 2,2 C 83 % 1021,1 hPa 0,0 l/m 1,1 km/h N -0,4 C 2,2 C 7,2 km/h
14.12.2014 17:00 1,6 C 83 % 1021,2 hPa 0,0 l/m 1,3 km/h N -1,0 C 1,6 C 6,4 km/h
14.12.2014 18:00 1,9 C 83 % 1021,5 hPa 0,0 l/m 0,4 km/h N -0,8 C 1,9 C 4,4 km/h
14.12.2014 19:00 1,9 C 82 % 1021,5 hPa 0,0 l/m 0,7 km/h N -0,8 C 1,9 C 6,0 km/h
14.12.2014 20:00 2,1 C 82 % 1021,3 hPa 0,0 l/m 0,5 km/h N -0,7 C 2,1 C 4,8 km/h
14.12.2014 21:00 1,6 C 82 % 1021,1 hPa 0,0 l/m 1,3 km/h N -1,0 C 1,6 C 6,4 km/h
14.12.2014 22:00 1,2 C 82 % 1021,1 hPa 0,0 l/m 0,9 km/h N -1,5 C 1,2 C 6,0 km/h
14.12.2014 23:00 1,3 C 82 % 1021,1 hPa 0,0 l/m 0,5 km/h N -1,4 C 1,3 C 4,0 km/h
Min-Datum _ 10.12.14 10.12.14 12.12.14 - 08.12.14 - 10.12.14 09.12.14 08.12.14
_ Min-Zeit 06:30 17:15 19:15 - 18:45 - 17:15 22:15 18:45
Minimum _ -1,5 C 52 % 1010,2 hPa - 0,0 km/h - -5,1 C -2,0 C 0,0 km/h
Max-Datum _ 12.12.14 14.12.14 09.12.14 08.12.14 08.12.14 - 11.12.14 12.12.14 08.12.14
_ Max-Zeit 11:00 06:45 22:15 00:00 05:45 - 13:00 11:00 05:15
Maximum _ 10,2 C 89 % 1029,1 hPa 0,0 l/m 17,7 km/h
N
- 3,5 C 10,2 C 41,8 km/h
N
Durchschnitt _ 3,5 C 77 % 1019,3 hPa #0,0 l/m 2,9 km/h N -0,3 C 3,1 C 10,5 km/h